Time;durP1;ratioP1;P1;durP2;ratioP2;P2;SDS_P1;SDS_P2;PMS_P1;PMS_P2;Temp;Humidity;BMP_temperature;BMP_pressure;BME280_temperature;BME280_humidity;BME280_pressure;Samples;Min_cycle;Max_cycle;Signal;HPM_P1;HPM_P2
2021/09/08 00:02:24;;;;;;;18.83;13.20;;;;;;;;;;5032107;28;20809;-64
2021/09/08 00:04:50;;;;;;;16.87;12.00;;;;;;;;;;5034859;28;20399;-65
2021/09/08 00:07:16;;;;;;;14.57;11.37;;;;;;;;;;5034078;28;20410;-63
2021/09/08 00:09:42;;;;;;;17.20;11.30;;;;;;;;;;5035022;28;20477;-63
2021/09/08 00:12:08;;;;;;;15.73;11.23;;;;;;;;;;5033920;28;20815;-63
2021/09/08 00:14:35;;;;;;;17.80;12.23;;;;;;;;;;5035199;28;20407;-62
2021/09/08 00:17:01;;;;;;;18.97;11.90;;;;;;;;;;5035035;28;20426;-64
2021/09/08 00:19:27;;;;;;;15.30;11.77;;;;;;;;;;5034111;28;20426;-64
2021/09/08 00:21:53;;;;;;;15.07;11.63;;;;;;;;;;5033955;28;20481;-64
2021/09/08 00:24:19;;;;;;;13.40;11.10;;;;;;;;;;5033117;28;20436;-63
2021/09/08 00:26:45;;;;;;;19.10;12.10;;;;;;;;;;5014802;28;20451;-64
2021/09/08 00:29:11;;;;;;;16.63;12.23;;;;;;;;;;5031113;28;20430;-64
2021/09/08 00:31:37;;;;;;;19.83;11.87;;;;;;;;;;5034474;28;20977;-64
2021/09/08 00:34:03;;;;;;;14.70;11.20;;;;;;;;;;5033496;28;20915;-64
2021/09/08 00:36:29;;;;;;;20.03;12.53;;;;;;;;;;5032586;28;20449;-64
2021/09/08 00:38:55;;;;;;;18.63;11.90;;;;;;;;;;5033576;28;20528;-65
2021/09/08 00:41:23;;;;;;;16.80;12.43;;;;;;;;;;5034692;28;20486;-64
2021/09/08 00:43:49;;;;;;;14.60;11.30;;;;;;;;;;5033348;28;20431;-64
2021/09/08 00:46:15;;;;;;;19.77;12.00;;;;;;;;;;5034622;28;20431;-64
2021/09/08 00:48:41;;;;;;;19.80;11.30;;;;;;;;;;5031859;28;20427;-64
2021/09/08 00:51:07;;;;;;;14.87;11.20;;;;;;;;;;5034506;28;20411;-64
2021/09/08 00:53:34;;;;;;;18.20;12.20;;;;;;;;;;5033436;28;20433;-64
2021/09/08 00:56:02;;;;;;;20.53;12.83;;;;;;;;;;5033167;28;20443;-64
2021/09/08 00:58:28;;;;;;;15.73;11.20;;;;;;;;;;5033478;28;20441;-63
2021/09/08 01:00:54;;;;;;;17.80;12.03;;;;;;;;;;5034289;28;20461;-63
2021/09/08 01:03:29;;;;;;;15.60;12.47;;;;;;;;;;5033188;28;20468;-63
2021/09/08 01:05:55;;;;;;;15.50;11.10;;;;;;;;;;5018666;28;20870;-64
2021/09/08 01:08:22;;;;;;;15.43;10.93;;;;;;;;;;5019190;28;20437;-63
2021/09/08 01:10:48;;;;;;;15.50;11.50;;;;;;;;;;5034275;28;20407;-64
2021/09/08 01:13:14;;;;;;;19.90;12.57;;;;;;;;;;5030614;28;20547;-64
2021/09/08 01:15:53;;;;;;;15.30;10.80;;;;;;;;;;5034131;28;20472;-64
2021/09/08 01:18:19;;;;;;;18.93;11.17;;;;;;;;;;5033131;28;20859;-64
2021/09/08 01:20:45;;;;;;;16.80;11.67;;;;;;;;;;5033765;28;20395;-64
2021/09/08 01:23:11;;;;;;;17.07;12.50;;;;;;;;;;5032809;28;20426;-64
2021/09/08 01:25:37;;;;;;;14.63;10.90;;;;;;;;;;5033438;28;20536;-64
2021/09/08 01:28:03;;;;;;;17.73;11.47;;;;;;;;;;5032652;28;20902;-64
2021/09/08 01:30:29;;;;;;;16.63;12.13;;;;;;;;;;5033532;28;20451;-64
2021/09/08 01:32:56;;;;;;;20.57;12.80;;;;;;;;;;5032341;28;20505;-63
2021/09/08 01:35:22;;;;;;;16.37;11.10;;;;;;;;;;5033430;28;20431;-63
2021/09/08 01:37:49;;;;;;;16.80;11.97;;;;;;;;;;5033270;28;20544;-63
2021/09/08 01:40:16;;;;;;;16.13;10.80;;;;;;;;;;5033190;28;20426;-64
2021/09/08 01:42:44;;;;;;;16.80;12.60;;;;;;;;;;5033290;28;20415;-63
2021/09/08 01:45:16;;;;;;;20.00;12.77;;;;;;;;;;5032556;28;20454;-63
2021/09/08 01:47:42;;;;;;;19.27;12.63;;;;;;;;;;5033308;28;20439;-63
2021/09/08 01:50:09;;;;;;;15.17;11.90;;;;;;;;;;5032273;28;20433;-64
2021/09/08 01:52:35;;;;;;;17.07;12.00;;;;;;;;;;5033120;28;20508;-64
2021/09/08 01:55:01;;;;;;;17.93;12.80;;;;;;;;;;5032206;28;20419;-64
2021/09/08 01:57:27;;;;;;;19.47;13.50;;;;;;;;;;5033481;28;20415;-64
2021/09/08 01:59:53;;;;;;;18.73;12.03;;;;;;;;;;5032117;28;20939;-63
2021/09/08 02:02:19;;;;;;;15.60;11.20;;;;;;;;;;5032417;28;20426;-63
2021/09/08 02:04:45;;;;;;;17.90;12.87;;;;;;;;;;5018360;28;20925;-64
2021/09/08 02:07:11;;;;;;;17.47;12.53;;;;;;;;;;5013361;28;20424;-64
2021/09/08 02:09:37;;;;;;;13.80;10.87;;;;;;;;;;5020100;28;20431;-63
2021/09/08 02:12:03;;;;;;;22.10;12.83;;;;;;;;;;5032969;28;20458;-64
2021/09/08 02:14:29;;;;;;;17.30;12.23;;;;;;;;;;5032170;28;20526;-63
2021/09/08 02:16:55;;;;;;;16.77;11.70;;;;;;;;;;5032949;28;20419;-64
2021/09/08 02:19:21;;;;;;;15.80;11.80;;;;;;;;;;5031823;28;20930;-63
2021/09/08 02:21:48;;;;;;;14.97;11.10;;;;;;;;;;5032800;28;20402;-64
2021/09/08 02:24:14;;;;;;;16.33;12.70;;;;;;;;;;5033557;28;20419;-64
2021/09/08 02:26:40;;;;;;;18.40;12.30;;;;;;;;;;5037005;28;20460;-64
2021/09/08 02:29:06;;;;;;;14.30;10.10;;;;;;;;;;5018390;28;20853;-64
2021/09/08 02:31:33;;;;;;;17.00;12.00;;;;;;;;;;5037219;28;20854;-63
2021/09/08 02:33:59;;;;;;;15.50;11.70;;;;;;;;;;5034916;28;20802;-64
2021/09/08 02:36:25;;;;;;;17.20;12.40;;;;;;;;;;5029074;28;20496;-63
2021/09/08 02:38:51;;;;;;;16.80;12.20;;;;;;;;;;5021096;28;20403;-63
2021/09/08 02:41:17;;;;;;;17.70;10.90;;;;;;;;;;5033093;28;20429;-62
2021/09/08 02:43:43;;;;;;;16.77;11.30;;;;;;;;;;5036249;28;20878;-62
2021/09/08 02:46:09;;;;;;;16.30;12.23;;;;;;;;;;5036124;28;20443;-63
2021/09/08 02:48:36;;;;;;;18.47;11.20;;;;;;;;;;5036600;28;20403;-63
2021/09/08 02:51:03;;;;;;;18.40;11.80;;;;;;;;;;5035865;28;20435;-63
2021/09/08 02:53:29;;;;;;;17.10;12.13;;;;;;;;;;5036659;28;20418;-64
2021/09/08 02:55:56;;;;;;;16.80;12.30;;;;;;;;;;5035547;28;20454;-63
2021/09/08 02:58:22;;;;;;;17.83;13.57;;;;;;;;;;5036561;28;20813;-63
2021/09/08 03:00:48;;;;;;;19.30;12.63;;;;;;;;;;5034295;28;20768;-63
2021/09/08 03:03:14;;;;;;;16.37;12.67;;;;;;;;;;5036447;28;20761;-63
2021/09/08 03:05:40;;;;;;;19.97;13.13;;;;;;;;;;5033431;28;20458;-63
2021/09/08 03:08:06;;;;;;;18.70;13.20;;;;;;;;;;5036624;28;20399;-63
2021/09/08 03:10:34;;;;;;;19.97;12.20;;;;;;;;;;5035358;28;20434;-63
2021/09/08 03:13:00;;;;;;;17.67;12.63;;;;;;;;;;5036413;28;20450;-63
2021/09/08 03:15:26;;;;;;;16.43;13.20;;;;;;;;;;5029854;28;20501;-63
2021/09/08 03:17:52;;;;;;;17.73;11.27;;;;;;;;;;5016383;28;20411;-63
2021/09/08 03:20:18;;;;;;;21.57;14.03;;;;;;;;;;5020257;28;20468;-63
2021/09/08 03:22:44;;;;;;;16.70;12.10;;;;;;;;;;5016338;28;20482;-63
2021/09/08 03:25:10;;;;;;;14.93;11.63;;;;;;;;;;5025421;28;20476;-63
2021/09/08 03:27:36;;;;;;;18.27;11.77;;;;;;;;;;5036234;28;20440;-64
2021/09/08 03:30:03;;;;;;;17.63;12.97;;;;;;;;;;5035429;28;20434;-64
2021/09/08 03:32:29;;;;;;;20.33;12.50;;;;;;;;;;5036039;28;20458;-64
2021/09/08 03:34:55;;;;;;;16.97;12.33;;;;;;;;;;5033941;28;20846;-63
2021/09/08 03:37:21;;;;;;;18.60;12.57;;;;;;;;;;5035794;28;20399;-63
2021/09/08 03:39:47;;;;;;;15.87;12.67;;;;;;;;;;5033863;28;20432;-65
2021/09/08 03:42:13;;;;;;;21.47;12.73;;;;;;;;;;5035707;28;20534;-65
2021/09/08 03:44:39;;;;;;;24.03;13.97;;;;;;;;;;5034665;28;20866;-63
2021/09/08 03:47:05;;;;;;;18.97;12.40;;;;;;;;;;5035534;28;20517;-63
2021/09/08 03:49:31;;;;;;;18.43;11.90;;;;;;;;;;5034849;28;20802;-63
2021/09/08 03:51:57;;;;;;;17.00;10.97;;;;;;;;;;5035604;28;20449;-65
2021/09/08 03:54:23;;;;;;;20.20;12.90;;;;;;;;;;5034795;28;20407;-65
2021/09/08 03:56:49;;;;;;;16.87;11.40;;;;;;;;;;5035328;28;20423;-63
2021/09/08 03:59:16;;;;;;;16.67;12.20;;;;;;;;;;5034394;28;20399;-64
2021/09/08 04:01:42;;;;;;;19.33;13.20;;;;;;;;;;5035318;28;20399;-63
2021/09/08 04:04:08;;;;;;;18.40;12.90;;;;;;;;;;5035084;28;20399;-66
2021/09/08 04:06:34;;;;;;;18.40;13.20;;;;;;;;;;5035240;28;20438;-64
2021/09/08 04:09:00;;;;;;;17.10;12.97;;;;;;;;;;5035398;28;20403;-63
2021/09/08 04:11:26;;;;;;;16.80;12.03;;;;;;;;;;5034545;28;20423;-63
2021/09/08 04:13:52;;;;;;;16.83;11.80;;;;;;;;;;5034274;28;20825;-63
2021/09/08 04:16:18;;;;;;;24.43;12.57;;;;;;;;;;5034126;28;20522;-64
2021/09/08 04:18:44;;;;;;;15.97;12.80;;;;;;;;;;5035433;28;20415;-64
2021/09/08 04:21:10;;;;;;;16.67;12.00;;;;;;;;;;5034124;28;20455;-65
2021/09/08 04:23:36;;;;;;;19.33;13.17;;;;;;;;;;5035162;28;20772;-64
2021/09/08 04:26:02;;;;;;;20.57;12.27;;;;;;;;;;5020319;28;20467;-64
2021/09/08 04:28:28;;;;;;;18.73;13.57;;;;;;;;;;5015212;28;20491;-63
2021/09/08 04:30:54;;;;;;;19.57;13.30;;;;;;;;;;5024030;28;20435;-63
2021/09/08 04:33:20;;;;;;;15.83;11.50;;;;;;;;;;5014737;28;20506;-63
2021/09/08 04:35:46;;;;;;;18.27;13.23;;;;;;;;;;5026314;28;20451;-63
2021/09/08 04:38:12;;;;;;;21.73;13.57;;;;;;;;;;5035136;28;20491;-63
2021/09/08 04:40:38;;;;;;;20.30;13.17;;;;;;;;;;5034124;28;20427;-64
2021/09/08 04:43:04;;;;;;;19.27;13.77;;;;;;;;;;5034906;28;20977;-64
2021/09/08 04:45:30;;;;;;;18.27;12.93;;;;;;;;;;5024827;28;20458;-63
2021/09/08 04:47:56;;;;;;;18.63;13.73;;;;;;;;;;5031009;28;20437;-63
2021/09/08 04:50:22;;;;;;;21.40;12.90;;;;;;;;;;5033907;28;20429;-64
2021/09/08 04:52:48;;;;;;;27.77;16.13;;;;;;;;;;5034462;28;20508;-63
2021/09/08 04:55:14;;;;;;;26.90;15.10;;;;;;;;;;5033664;28;20488;-63
2021/09/08 04:57:40;;;;;;;28.70;15.47;;;;;;;;;;5034645;28;20488;-63
2021/09/08 05:00:07;;;;;;;22.30;14.50;;;;;;;;;;5032583;28;20450;-63
2021/09/08 05:02:36;;;;;;;20.83;13.50;;;;;;;;;;5015538;28;20491;-64
2021/09/08 05:05:02;;;;;;;25.83;14.23;;;;;;;;;;5013634;28;20432;-63
2021/09/08 05:07:28;;;;;;;23.47;15.40;;;;;;;;;;5015917;28;20546;-63
2021/09/08 05:09:54;;;;;;;23.77;14.47;;;;;;;;;;5015325;28;20911;-63
2021/09/08 05:12:20;;;;;;;22.60;14.07;;;;;;;;;;5021368;28;20527;-64
2021/09/08 05:14:46;;;;;;;19.83;12.60;;;;;;;;;;5033127;28;20502;-64
2021/09/08 05:17:12;;;;;;;21.20;14.80;;;;;;;;;;5033983;28;20445;-63
2021/09/08 05:19:38;;;;;;;19.87;13.07;;;;;;;;;;5032350;28;20521;-68
2021/09/08 05:22:04;;;;;;;22.00;13.73;;;;;;;;;;5034278;28;20450;-66
2021/09/08 05:24:30;;;;;;;20.53;13.20;;;;;;;;;;5034298;28;20395;-66
2021/09/08 05:26:56;;;;;;;22.33;14.40;;;;;;;;;;5032910;28;20473;-67
2021/09/08 05:29:22;;;;;;;23.63;13.77;;;;;;;;;;5032710;28;20427;-65
2021/09/08 05:31:48;;;;;;;18.93;14.47;;;;;;;;;;5032811;28;20458;-63
2021/09/08 05:34:14;;;;;;;19.83;13.53;;;;;;;;;;5033437;28;20414;-66
2021/09/08 05:36:40;;;;;;;18.67;12.33;;;;;;;;;;5033002;28;20553;-64
2021/09/08 05:39:06;;;;;;;23.10;15.33;;;;;;;;;;5033730;28;20759;-64
2021/09/08 05:41:32;;;;;;;15.83;12.20;;;;;;;;;;5031890;28;20419;-63
2021/09/08 05:43:58;;;;;;;18.17;13.00;;;;;;;;;;5033889;28;20798;-64
2021/09/08 05:46:24;;;;;;;20.33;14.50;;;;;;;;;;5032431;28;20524;-64
2021/09/08 05:48:50;;;;;;;17.77;12.53;;;;;;;;;;5033396;28;20391;-64
2021/09/08 05:51:16;;;;;;;19.93;13.00;;;;;;;;;;5032400;28;20417;-65
2021/09/08 05:53:42;;;;;;;23.10;14.37;;;;;;;;;;5033822;28;20402;-64
2021/09/08 05:56:08;;;;;;;17.43;12.97;;;;;;;;;;5033498;28;20450;-65
2021/09/08 05:58:34;;;;;;;26.03;14.63;;;;;;;;;;5033142;28;20445;-65
2021/09/08 06:01:01;;;;;;;14.83;11.80;;;;;;;;;;5032694;28;20426;-64
2021/09/08 06:03:27;;;;;;;20.00;13.50;;;;;;;;;;5033087;28;20452;-65
2021/09/08 06:05:53;;;;;;;19.07;13.53;;;;;;;;;;5030909;28;20497;-64
2021/09/08 06:08:19;;;;;;;23.33;13.40;;;;;;;;;;5032319;28;20450;-64
2021/09/08 06:10:45;;;;;;;22.90;15.20;;;;;;;;;;5024654;28;20516;-66
2021/09/08 06:13:11;;;;;;;21.13;14.60;;;;;;;;;;5036468;28;20504;-65
2021/09/08 06:15:37;;;;;;;18.07;12.80;;;;;;;;;;5035227;28;20781;-67
2021/09/08 06:18:05;;;;;;;15.83;12.87;;;;;;;;;;5035776;28;20482;-63
2021/09/08 06:20:31;;;;;;;24.47;15.10;;;;;;;;;;5031911;28;20414;-62
2021/09/08 06:22:57;;;;;;;21.47;12.43;;;;;;;;;;5031717;28;20429;-67
2021/09/08 06:25:24;;;;;;;20.97;12.80;;;;;;;;;;5035478;28;20441;-66
2021/09/08 06:27:50;;;;;;;20.10;13.20;;;;;;;;;;5033251;28;20423;-65
2021/09/08 06:30:16;;;;;;;18.73;12.70;;;;;;;;;;5029433;28;20411;-66
2021/09/08 06:32:42;;;;;;;17.80;13.43;;;;;;;;;;5019690;28;20462;-65
2021/09/08 06:35:08;;;;;;;19.70;13.23;;;;;;;;;;5027864;28;20777;-67
2021/09/08 06:37:34;;;;;;;16.97;14.30;;;;;;;;;;5031995;28;20425;-66
2021/09/08 06:40:00;;;;;;;20.30;12.50;;;;;;;;;;5032602;28;20466;-65
2021/09/08 06:42:26;;;;;;;16.87;13.20;;;;;;;;;;5028841;28;20454;-65
2021/09/08 06:44:53;;;;;;;15.27;11.60;;;;;;;;;;5031001;28;20415;-65
2021/09/08 06:47:20;;;;;;;19.50;13.43;;;;;;;;;;5024932;28;20435;-70
2021/09/08 06:49:46;;;;;;;20.50;13.57;;;;;;;;;;5025335;28;20472;-70
2021/09/08 06:52:12;;;;;;;21.53;13.13;;;;;;;;;;5028112;28;20454;-68
2021/09/08 06:54:39;;;;;;;15.70;12.30;;;;;;;;;;5028265;28;20411;-69
2021/09/08 06:57:05;;;;;;;24.50;10.80;;;;;;;;;;5015061;28;20541;-68
2021/09/08 06:59:31;;;;;;;14.80;11.10;;;;;;;;;;5015293;28;20947;-68
2021/09/08 07:01:58;;;;;;;14.27;11.07;;;;;;;;;;5011390;28;20437;-67
2021/09/08 07:04:24;;;;;;;21.67;12.30;;;;;;;;;;5016729;28;20427;-66
2021/09/08 07:06:50;;;;;;;15.97;10.87;;;;;;;;;;5016419;28;20823;-68
2021/09/08 07:09:16;;;;;;;15.70;11.90;;;;;;;;;;5010206;28;20439;-68
2021/09/08 07:11:43;;;;;;;19.10;11.20;;;;;;;;;;5022903;28;20474;-65
2021/09/08 07:14:09;;;;;;;16.50;12.33;;;;;;;;;;5022112;28;20430;-67
2021/09/08 07:16:35;;;;;;;16.93;10.90;;;;;;;;;;5022199;28;20483;-67
2021/09/08 07:19:01;;;;;;;15.37;10.53;;;;;;;;;;5022878;28;20841;-68
2021/09/08 07:21:27;;;;;;;21.30;12.27;;;;;;;;;;5022060;28;20556;-67
2021/09/08 07:23:53;;;;;;;12.83;9.93;;;;;;;;;;5022069;28;20427;-66
2021/09/08 07:26:19;;;;;;;12.33;9.90;;;;;;;;;;5023360;28;20812;-66
2021/09/08 07:28:45;;;;;;;14.57;10.90;;;;;;;;;;5023303;28;20438;-68
2021/09/08 07:31:11;;;;;;;13.87;9.47;;;;;;;;;;5021771;28;20443;-66
2021/09/08 07:33:37;;;;;;;12.60;9.73;;;;;;;;;;5021453;28;20470;-64
2021/09/08 07:36:04;;;;;;;15.70;11.00;;;;;;;;;;5021309;28;20446;-65
2021/09/08 07:38:30;;;;;;;14.00;9.27;;;;;;;;;;5021733;28;20989;-65
2021/09/08 07:40:56;;;;;;;12.33;9.07;;;;;;;;;;5022138;28;20800;-68
2021/09/08 07:43:22;;;;;;;17.60;10.87;;;;;;;;;;5023646;28;20443;-65
2021/09/08 07:45:49;;;;;;;15.27;9.40;;;;;;;;;;5021251;28;20542;-67
2021/09/08 07:48:15;;;;;;;16.00;11.20;;;;;;;;;;5021439;28;20444;-67
2021/09/08 07:50:43;;;;;;;18.00;10.77;;;;;;;;;;5006429;28;20484;-67
2021/09/08 07:53:10;;;;;;;11.63;9.27;;;;;;;;;;5025095;28;20557;-65
2021/09/08 07:55:36;;;;;;;10.90;8.77;;;;;;;;;;5024389;28;20466;-66
2021/09/08 07:58:03;;;;;;;14.93;9.20;;;;;;;;;;5020829;28;20923;-66
2021/09/08 08:00:30;;;;;;;11.70;8.27;;;;;;;;;;5022259;28;20446;-65
2021/09/08 08:02:56;;;;;;;15.90;9.33;;;;;;;;;;5020720;28;20442;-67
2021/09/08 08:05:22;;;;;;;11.10;8.60;;;;;;;;;;5020159;28;20461;-70
2021/09/08 08:07:48;;;;;;;10.67;8.60;;;;;;;;;;5023557;28;20438;-65
2021/09/08 08:10:15;;;;;;;13.37;10.90;;;;;;;;;;5020276;28;20422;-66
2021/09/08 08:12:42;;;;;;;10.03;6.90;;;;;;;;;;5021368;28;20471;-65
2021/09/08 08:15:08;;;;;;;11.57;8.33;;;;;;;;;;5021982;28;20464;-65
2021/09/08 08:17:34;;;;;;;14.10;9.50;;;;;;;;;;5022580;28;21701;-70
2021/09/08 08:20:01;;;;;;;12.30;9.10;;;;;;;;;;5022577;28;20458;-67
2021/09/08 08:22:27;;;;;;;9.80;7.73;;;;;;;;;;5019533;28;20435;-65
2021/09/08 08:24:53;;;;;;;16.03;9.30;;;;;;;;;;5023414;28;20950;-68
2021/09/08 08:27:19;;;;;;;14.63;8.93;;;;;;;;;;5021578;28;20438;-68
2021/09/08 08:29:45;;;;;;;14.83;8.77;;;;;;;;;;5019057;28;20538;-69
2021/09/08 08:32:11;;;;;;;17.90;10.10;;;;;;;;;;5015122;28;20495;-68
2021/09/08 08:34:37;;;;;;;13.80;8.90;;;;;;;;;;5021890;28;20785;-71
2021/09/08 08:37:04;;;;;;;13.00;9.50;;;;;;;;;;5021854;28;21026;-67
2021/09/08 08:39:30;;;;;;;11.53;8.53;;;;;;;;;;5021231;28;20462;-68
2021/09/08 08:41:56;;;;;;;18.37;8.53;;;;;;;;;;5020852;28;20500;-68
2021/09/08 08:44:23;;;;;;;12.57;9.00;;;;;;;;;;5021413;28;20915;-67
2021/09/08 08:46:50;;;;;;;12.97;9.10;;;;;;;;;;5021478;28;20446;-67
2021/09/08 08:49:17;;;;;;;13.00;8.73;;;;;;;;;;5022870;28;20438;-68
2021/09/08 08:51:43;;;;;;;11.13;8.80;;;;;;;;;;5018979;28;20489;-68
2021/09/08 08:54:09;;;;;;;12.40;8.80;;;;;;;;;;5020337;28;20434;-69
2021/09/08 08:56:35;;;;;;;13.50;9.30;;;;;;;;;;5023089;28;20450;-70
2021/09/08 08:59:02;;;;;;;15.27;9.37;;;;;;;;;;5019401;28;20422;-72
2021/09/08 09:01:31;;;;;;;12.03;8.60;;;;;;;;;;5021993;28;20418;-65
2021/09/08 09:04:02;;;;;;;11.20;7.27;;;;;;;;;;5018071;28;20694;-68
2021/09/08 09:06:28;;;;;;;13.40;8.80;;;;;;;;;;5014087;28;20467;-69
2021/09/08 09:09:05;;;;;;;11.10;8.83;;;;;;;;;;5021047;28;20422;-64
2021/09/08 09:11:31;;;;;;;10.60;8.90;;;;;;;;;;5017075;28;20442;-67
2021/09/08 09:13:58;;;;;;;11.33;8.80;;;;;;;;;;5021034;28;20427;-66
2021/09/08 09:16:25;;;;;;;10.70;7.93;;;;;;;;;;5016203;28;20537;-66
2021/09/08 09:18:51;;;;;;;9.83;7.60;;;;;;;;;;5020682;28;20827;-67
2021/09/08 09:21:17;;;;;;;13.17;9.30;;;;;;;;;;5021104;28;20423;-67
2021/09/08 09:23:46;;;;;;;13.07;8.10;;;;;;;;;;5021607;28;20516;-66
2021/09/08 09:26:12;;;;;;;11.70;8.13;;;;;;;;;;5022793;28;20461;-68
2021/09/08 09:28:44;;;;;;;9.40;7.30;;;;;;;;;;5020371;28;20450;-67
2021/09/08 09:31:15;;;;;;;15.00;9.60;;;;;;;;;;5017086;28;20438;-68
2021/09/08 09:33:45;;;;;;;14.90;8.27;;;;;;;;;;5016998;28;20516;-66
2021/09/08 09:36:21;;;;;;;11.00;9.00;;;;;;;;;;5016577;28;20450;-66
2021/09/08 09:38:48;;;;;;;9.33;7.27;;;;;;;;;;5017963;28;20442;-65
2021/09/08 09:41:16;;;;;;;13.57;8.90;;;;;;;;;;5021479;28;20430;-67
2021/09/08 09:43:43;;;;;;;14.20;8.67;;;;;;;;;;5020082;28;20433;-68
2021/09/08 09:46:09;;;;;;;13.77;8.70;;;;;;;;;;5019588;28;20451;-68
2021/09/08 09:48:36;;;;;;;10.90;8.10;;;;;;;;;;5016494;28;20433;-66
2021/09/08 09:51:03;;;;;;;15.73;8.27;;;;;;;;;;5020144;28;20978;-66
2021/09/08 09:53:30;;;;;;;15.20;8.47;;;;;;;;;;5019389;28;20504;-67
2021/09/08 09:55:56;;;;;;;12.30;8.50;;;;;;;;;;5017643;28;20967;-68
2021/09/08 09:58:23;;;;;;;12.47;7.03;;;;;;;;;;5019773;28;20422;-68
2021/09/08 10:00:49;;;;;;;9.70;7.20;;;;;;;;;;5017425;28;20877;-68
2021/09/08 10:03:15;;;;;;;11.10;7.70;;;;;;;;;;5018341;28;20430;-68
2021/09/08 10:05:41;;;;;;;8.70;7.20;;;;;;;;;;5019888;28;20799;-64
2021/09/08 10:08:08;;;;;;;10.97;7.17;;;;;;;;;;5012231;28;21074;-66
2021/09/08 10:10:35;;;;;;;9.50;7.17;;;;;;;;;;5018195;28;20972;-66
2021/09/08 10:13:18;;;;;;;12.33;7.53;;;;;;;;;;5021991;28;20465;-66
2021/09/08 10:15:44;;;;;;;8.30;6.47;;;;;;;;;;5018500;28;20446;-66
2021/09/08 10:18:11;;;;;;;11.10;7.57;;;;;;;;;;5020624;28;20470;-67
2021/09/08 10:20:38;;;;;;;11.90;8.50;;;;;;;;;;5019926;28;20437;-66
2021/09/08 10:23:08;;;;;;;12.53;7.07;;;;;;;;;;5020828;28;20492;-65
2021/09/08 10:25:34;;;;;;;8.87;6.93;;;;;;;;;;5019661;28;21219;-68
2021/09/08 10:28:00;;;;;;;10.93;7.03;;;;;;;;;;5020984;28;20439;-67
2021/09/08 10:30:27;;;;;;;9.00;7.33;;;;;;;;;;5003833;28;20529;-68
2021/09/08 10:32:53;;;;;;;11.57;6.90;;;;;;;;;;5015556;28;20458;-71
2021/09/08 10:35:20;;;;;;;7.90;6.73;;;;;;;;;;5017032;28;20476;-67
2021/09/08 10:37:47;;;;;;;8.10;6.80;;;;;;;;;;5017265;28;20468;-68
2021/09/08 10:40:16;;;;;;;8.57;6.73;;;;;;;;;;5021139;28;20915;-69
2021/09/08 10:42:45;;;;;;;8.40;6.90;;;;;;;;;;5018724;28;20434;-70
2021/09/08 10:45:16;;;;;;;9.93;7.20;;;;;;;;;;5021882;28;20434;-68
2021/09/08 10:47:42;;;;;;;11.50;6.90;;;;;;;;;;5021270;28;20434;-67
2021/09/08 10:50:09;;;;;;;9.97;7.30;;;;;;;;;;5025164;28;20441;-68
2021/09/08 10:52:38;;;;;;;10.67;7.70;;;;;;;;;;5021832;28;20525;-66
2021/09/08 10:55:17;;;;;;;8.57;6.63;;;;;;;;;;5025275;28;20781;-64
2021/09/08 10:57:43;;;;;;;8.70;6.90;;;;;;;;;;5018955;28;20480;-69
2021/09/08 11:00:11;;;;;;;9.40;6.67;;;;;;;;;;5022903;28;20425;-66
2021/09/08 11:02:40;;;;;;;8.50;6.93;;;;;;;;;;5025837;28;20434;-65
2021/09/08 11:05:07;;;;;;;10.97;7.10;;;;;;;;;;5023563;28;20798;-68
2021/09/08 11:07:33;;;;;;;7.67;5.77;;;;;;;;;;5024017;28;20426;-66
2021/09/08 11:09:59;;;;;;;8.60;6.50;;;;;;;;;;5024080;28;20513;-67
2021/09/08 11:13:03;;;;;;;8.00;6.63;;;;;;;;;;5024806;28;20494;-69
2021/09/08 11:15:33;;;;;;;12.50;7.20;;;;;;;;;;4946059;28;20469;-66
2021/09/08 11:17:59;;;;;;;9.10;7.10;;;;;;;;;;4945497;28;20600;-66
2021/09/08 11:20:25;;;;;;;7.87;5.77;;;;;;;;;;4981235;28;20457;-66
2021/09/08 11:22:58;;;;;;;7.80;5.70;;;;;;;;;;5021671;28;20990;-68
2021/09/08 11:25:28;;;;;;;8.47;6.03;;;;;;;;;;5015484;28;20465;-66
2021/09/08 11:27:54;;;;;;;9.10;5.63;;;;;;;;;;5021356;28;20438;-66
2021/09/08 11:30:20;;;;;;;7.47;6.37;;;;;;;;;;5006712;28;21044;-68
2021/09/08 11:32:50;;;;;;;13.33;7.20;;;;;;;;;;5024472;28;20457;-68
2021/09/08 11:35:16;;;;;;;10.03;7.40;;;;;;;;;;5042645;23;21221;-68
2021/09/08 11:37:45;;;;;;;9.53;6.77;;;;;;;;;;5024809;28;20973;-69
2021/09/08 11:40:11;;;;;;;8.37;5.87;;;;;;;;;;5017919;28;20462;-69
2021/09/08 11:42:41;;;;;;;9.27;6.63;;;;;;;;;;5022368;28;20440;-72
2021/09/08 11:45:08;;;;;;;7.83;6.70;;;;;;;;;;5021840;28;20450;-69
2021/09/08 11:47:34;;;;;;;7.40;6.17;;;;;;;;;;5021680;28;20472;-66
2021/09/08 11:50:00;;;;;;;16.37;6.83;;;;;;;;;;5026007;28;20430;-67
2021/09/08 11:52:26;;;;;;;8.57;6.60;;;;;;;;;;5031702;28;20982;-67
2021/09/08 11:54:52;;;;;;;8.60;6.97;;;;;;;;;;5033485;28;20474;-66
2021/09/08 11:57:25;;;;;;;8.23;6.50;;;;;;;;;;5031268;28;20426;-67
2021/09/08 11:59:54;;;;;;;8.00;6.63;;;;;;;;;;5031377;28;20414;-68
2021/09/08 12:02:20;;;;;;;8.80;6.47;;;;;;;;;;5031740;28;20568;-67
2021/09/08 12:04:46;;;;;;;8.70;6.77;;;;;;;;;;5024263;28;20454;-72
2021/09/08 12:07:12;;;;;;;7.70;6.47;;;;;;;;;;5025471;28;20450;-67
2021/09/08 12:09:46;;;;;;;13.47;7.27;;;;;;;;;;5031892;28;20430;-67
2021/09/08 12:12:13;;;;;;;8.20;6.70;;;;;;;;;;5031808;28;20457;-66
2021/09/08 12:14:39;;;;;;;16.20;7.23;;;;;;;;;;5029239;28;20439;-67
2021/09/08 12:17:17;;;;;;;8.43;6.30;;;;;;;;;;5030361;28;20461;-66
2021/09/08 12:19:44;;;;;;;10.77;6.90;;;;;;;;;;5031703;28;20429;-66
2021/09/08 12:22:24;;;;;;;10.30;6.70;;;;;;;;;;5028415;28;20418;-66
2021/09/08 12:24:52;;;;;;;8.27;6.10;;;;;;;;;;5029853;28;20459;-67
2021/09/08 12:27:28;;;;;;;8.17;5.87;;;;;;;;;;5032098;28;20426;-66
2021/09/08 12:29:55;;;;;;;7.87;5.97;;;;;;;;;;5027578;28;20426;-67
2021/09/08 12:32:21;;;;;;;8.50;5.47;;;;;;;;;;5028839;28;20463;-66
2021/09/08 12:34:48;;;;;;;9.00;6.83;;;;;;;;;;5031259;28;20453;-67
2021/09/08 12:37:14;;;;;;;7.23;5.77;;;;;;;;;;5031248;28;20500;-67
2021/09/08 12:39:47;;;;;;;10.30;6.63;;;;;;;;;;5029828;28;20430;-67
2021/09/08 12:42:23;;;;;;;7.57;6.77;;;;;;;;;;5027073;28;20477;-67
2021/09/08 12:44:50;;;;;;;6.73;5.90;;;;;;;;;;5030181;28;20461;-67
2021/09/08 12:47:17;;;;;;;7.47;5.33;;;;;;;;;;5029691;28;20434;-67
2021/09/08 12:49:44;;;;;;;9.43;6.33;;;;;;;;;;5030563;28;20430;-66
2021/09/08 12:52:12;;;;;;;9.47;5.90;;;;;;;;;;5029320;28;21100;-68
2021/09/08 12:54:39;;;;;;;7.23;6.03;;;;;;;;;;5032667;28;20829;-67
2021/09/08 12:57:06;;;;;;;10.20;6.07;;;;;;;;;;5020518;28;20980;-67
2021/09/08 12:59:34;;;;;;;7.60;5.40;;;;;;;;;;5031758;28;20897;-68
2021/09/08 13:02:00;;;;;;;11.50;5.17;;;;;;;;;;5028297;28;20422;-66
2021/09/08 13:04:26;;;;;;;8.37;4.63;;;;;;;;;;5027057;28;20454;-67
2021/09/08 13:06:52;;;;;;;7.40;6.30;;;;;;;;;;5029637;28;20434;-68
2021/09/08 13:09:18;;;;;;;6.73;5.10;;;;;;;;;;5033625;28;20553;-67
2021/09/08 13:11:45;;;;;;;8.60;6.33;;;;;;;;;;5028022;28;20508;-67
2021/09/08 13:14:11;;;;;;;9.17;6.33;;;;;;;;;;5024605;28;20472;-68
2021/09/08 13:16:38;;;;;;;8.17;5.77;;;;;;;;;;5029583;28;20781;-68
2021/09/08 13:19:05;;;;;;;7.70;5.93;;;;;;;;;;5029761;28;20422;-67
2021/09/08 13:21:32;;;;;;;9.53;6.30;;;;;;;;;;5009804;28;20509;-67
2021/09/08 13:23:59;;;;;;;8.87;6.00;;;;;;;;;;5030326;28;20442;-65
2021/09/08 13:26:25;;;;;;;7.30;5.83;;;;;;;;;;5027462;28;20438;-67
2021/09/08 13:28:51;;;;;;;9.60;5.80;;;;;;;;;;5027003;28;20752;-65
2021/09/08 13:31:17;;;;;;;6.33;4.93;;;;;;;;;;5028848;28;21065;-65
2021/09/08 13:33:43;;;;;;;6.97;6.10;;;;;;;;;;5029060;28;20460;-66
2021/09/08 13:36:09;;;;;;;7.70;5.60;;;;;;;;;;5030810;28;20426;-65
2021/09/08 13:38:36;;;;;;;10.00;6.20;;;;;;;;;;5033394;28;21000;-66
2021/09/08 13:41:02;;;;;;;10.33;5.80;;;;;;;;;;5025076;28;20422;-66
2021/09/08 13:43:29;;;;;;;6.83;5.70;;;;;;;;;;5032208;28;20452;-65
2021/09/08 13:45:55;;;;;;;6.47;5.77;;;;;;;;;;5028451;28;20513;-66
2021/09/08 13:48:22;;;;;;;6.07;4.70;;;;;;;;;;5029275;28;20429;-66
2021/09/08 13:50:48;;;;;;;19.40;6.87;;;;;;;;;;5028721;28;20918;-65
2021/09/08 13:53:14;;;;;;;7.83;6.10;;;;;;;;;;5029453;28;20545;-66
2021/09/08 13:55:40;;;;;;;9.80;5.30;;;;;;;;;;5028854;28;20861;-66
2021/09/08 13:58:06;;;;;;;6.13;5.30;;;;;;;;;;5029051;28;20786;-66
2021/09/08 14:00:33;;;;;;;7.30;5.70;;;;;;;;;;5026283;28;20422;-66
2021/09/08 14:02:59;;;;;;;8.93;5.33;;;;;;;;;;5029557;28;20425;-66
2021/09/08 14:05:25;;;;;;;7.70;5.80;;;;;;;;;;5021973;28;20445;-65
2021/09/08 14:07:51;;;;;;;6.90;6.07;;;;;;;;;;5022723;28;20470;-66
2021/09/08 14:10:18;;;;;;;10.30;5.43;;;;;;;;;;5026042;28;20433;-67
2021/09/08 14:12:44;;;;;;;7.50;5.80;;;;;;;;;;5027706;28;20503;-67
2021/09/08 14:15:12;;;;;;;6.83;5.87;;;;;;;;;;5029131;28;21063;-66
2021/09/08 14:17:38;;;;;;;7.10;5.57;;;;;;;;;;5028510;28;20458;-68
2021/09/08 14:20:04;;;;;;;8.90;5.43;;;;;;;;;;5010530;28;20426;-64
2021/09/08 14:22:31;;;;;;;9.30;5.80;;;;;;;;;;5026718;28;20430;-66
2021/09/08 14:24:59;;;;;;;7.33;5.30;;;;;;;;;;5027712;28;20442;-68